sensor_id;sensor_type;location;lat;lon;timestamp;temperature;humidity
53962;DHT22;39868;53.398;6.564;2022-12-18T00:01:25;-0.50;80.10
53962;DHT22;39868;53.398;6.564;2022-12-18T00:03:54;-0.50;80.20
53962;DHT22;39868;53.398;6.564;2022-12-18T00:06:23;-0.50;80.20
53962;DHT22;39868;53.398;6.564;2022-12-18T00:08:52;-0.50;80.20
53962;DHT22;39868;53.398;6.564;2022-12-18T00:11:22;-0.40;80.30
53962;DHT22;39868;53.398;6.564;2022-12-18T00:13:51;-0.40;80.40
53962;DHT22;39868;53.398;6.564;2022-12-18T00:16:21;-0.40;80.40
53962;DHT22;39868;53.398;6.564;2022-12-18T00:18:52;-0.40;80.50
53962;DHT22;39868;53.398;6.564;2022-12-18T00:21:20;-0.40;80.50
53962;DHT22;39868;53.398;6.564;2022-12-18T00:23:49;-0.40;80.50
53962;DHT22;39868;53.398;6.564;2022-12-18T00:26:30;-0.40;80.50
53962;DHT22;39868;53.398;6.564;2022-12-18T00:29:07;-0.40;80.60
53962;DHT22;39868;53.398;6.564;2022-12-18T00:31:35;-0.30;80.70
53962;DHT22;39868;53.398;6.564;2022-12-18T00:34:03;-0.30;80.60
53962;DHT22;39868;53.398;6.564;2022-12-18T00:36:33;-0.30;80.60
53962;DHT22;39868;53.398;6.564;2022-12-18T00:39:03;-0.30;80.60
53962;DHT22;39868;53.398;6.564;2022-12-18T00:41:32;-0.30;80.60
53962;DHT22;39868;53.398;6.564;2022-12-18T00:44:19;-0.30;80.60
53962;DHT22;39868;53.398;6.564;2022-12-18T00:46:47;-0.20;80.70
53962;DHT22;39868;53.398;6.564;2022-12-18T00:49:17;-0.20;80.70
53962;DHT22;39868;53.398;6.564;2022-12-18T00:51:47;-0.20;80.70
53962;DHT22;39868;53.398;6.564;2022-12-18T00:54:15;-0.20;80.70
53962;DHT22;39868;53.398;6.564;2022-12-18T00:56:43;-0.20;80.70
53962;DHT22;39868;53.398;6.564;2022-12-18T00:59:18;-0.20;80.70
53962;DHT22;39868;53.398;6.564;2022-12-18T01:01:46;-0.20;80.70
53962;DHT22;39868;53.398;6.564;2022-12-18T01:04:14;-0.20;80.60
53962;DHT22;39868;53.398;6.564;2022-12-18T01:06:44;-0.20;80.60
53962;DHT22;39868;53.398;6.564;2022-12-18T01:09:12;-0.20;80.60
53962;DHT22;39868;53.398;6.564;2022-12-18T01:11:40;-0.20;80.50
53962;DHT22;39868;53.398;6.564;2022-12-18T01:14:10;-0.20;80.50
53962;DHT22;39868;53.398;6.564;2022-12-18T01:16:37;-0.20;80.40
53962;DHT22;39868;53.398;6.564;2022-12-18T01:19:05;-0.20;80.40
53962;DHT22;39868;53.398;6.564;2022-12-18T01:21:33;-0.20;80.30
53962;DHT22;39868;53.398;6.564;2022-12-18T01:24:03;-0.30;80.30
53962;DHT22;39868;53.398;6.564;2022-12-18T01:26:40;-0.30;80.30
53962;DHT22;39868;53.398;6.564;2022-12-18T01:29:08;-0.30;80.20
53962;DHT22;39868;53.398;6.564;2022-12-18T01:31:36;-0.40;80.10
53962;DHT22;39868;53.398;6.564;2022-12-18T01:34:04;-0.40;80.10
53962;DHT22;39868;53.398;6.564;2022-12-18T01:36:36;-0.40;80.10
53962;DHT22;39868;53.398;6.564;2022-12-18T01:39:06;-0.40;80.10
53962;DHT22;39868;53.398;6.564;2022-12-18T01:41:35;-0.40;80.10
53962;DHT22;39868;53.398;6.564;2022-12-18T01:47:44;-0.50;80.10
53962;DHT22;39868;53.398;6.564;2022-12-18T01:50:25;-0.50;80.20
53962;DHT22;39868;53.398;6.564;2022-12-18T01:53:02;-0.50;80.20
53962;DHT22;39868;53.398;6.564;2022-12-18T01:55:46;-0.50;80.20
53962;DHT22;39868;53.398;6.564;2022-12-18T01:58:15;-0.50;80.30
53962;DHT22;39868;53.398;6.564;2022-12-18T02:00:43;-0.50;80.30
53962;DHT22;39868;53.398;6.564;2022-12-18T02:03:11;-0.60;80.30
53962;DHT22;39868;53.398;6.564;2022-12-18T02:11:24;-0.60;80.20
53962;DHT22;39868;53.398;6.564;2022-12-18T02:14:05;-0.60;80.20
53962;DHT22;39868;53.398;6.564;2022-12-18T02:25:57;-0.70;80.20
53962;DHT22;39868;53.398;6.564;2022-12-18T02:28:32;-0.80;80.10
53962;DHT22;39868;53.398;6.564;2022-12-18T02:31:07;-0.80;80.10
53962;DHT22;39868;53.398;6.564;2022-12-18T02:33:37;-0.80;80.00
53962;DHT22;39868;53.398;6.564;2022-12-18T02:36:07;-0.80;80.00
53962;DHT22;39868;53.398;6.564;2022-12-18T02:38:37;-0.90;80.00
53962;DHT22;39868;53.398;6.564;2022-12-18T02:41:12;-0.90;80.00
53962;DHT22;39868;53.398;6.564;2022-12-18T02:43:46;-0.90;80.00
53962;DHT22;39868;53.398;6.564;2022-12-18T02:46:30;-1.00;79.90
53962;DHT22;39868;53.398;6.564;2022-12-18T02:58:01;-1.00;80.00
53962;DHT22;39868;53.398;6.564;2022-12-18T03:00:20;-1.10;79.90
53962;DHT22;39868;53.398;6.564;2022-12-18T03:03:11;-1.10;79.90
53962;DHT22;39868;53.398;6.564;2022-12-18T03:05:52;-1.10;79.90
53962;DHT22;39868;53.398;6.564;2022-12-18T03:08:24;-1.10;79.90
53962;DHT22;39868;53.398;6.564;2022-12-18T03:11:06;-1.20;79.80
53962;DHT22;39868;53.398;6.564;2022-12-18T03:13:43;-1.20;79.80
53962;DHT22;39868;53.398;6.564;2022-12-18T03:16:22;-1.20;79.80
53962;DHT22;39868;53.398;6.564;2022-12-18T03:19:14;-1.30;79.70
53962;DHT22;39868;53.398;6.564;2022-12-18T03:21:47;-1.30;79.70
53962;DHT22;39868;53.398;6.564;2022-12-18T03:24:17;-1.30;79.70
53962;DHT22;39868;53.398;6.564;2022-12-18T03:26:52;-1.40;79.60
53962;DHT22;39868;53.398;6.564;2022-12-18T03:29:36;-1.40;79.60
53962;DHT22;39868;53.398;6.564;2022-12-18T03:32:19;-1.50;79.60
53962;DHT22;39868;53.398;6.564;2022-12-18T03:34:51;-1.50;79.60
53962;DHT22;39868;53.398;6.564;2022-12-18T03:37:22;-1.50;79.60
53962;DHT22;39868;53.398;6.564;2022-12-18T03:39:52;-1.50;79.60
53962;DHT22;39868;53.398;6.564;2022-12-18T03:42:51;-1.60;79.60
53962;DHT22;39868;53.398;6.564;2022-12-18T03:45:34;-1.60;79.60
53962;DHT22;39868;53.398;6.564;2022-12-18T03:48:30;-1.60;80.20
53962;DHT22;39868;53.398;6.564;2022-12-18T03:51:05;-1.70;79.70
53962;DHT22;39868;53.398;6.564;2022-12-18T03:53:50;-1.70;79.70
53962;DHT22;39868;53.398;6.564;2022-12-18T03:56:25;-1.70;79.70
53962;DHT22;39868;53.398;6.564;2022-12-18T03:58:57;-1.70;79.70
53962;DHT22;39868;53.398;6.564;2022-12-18T04:01:35;-1.70;79.80
53962;DHT22;39868;53.398;6.564;2022-12-18T04:04:05;-1.80;79.80
53962;DHT22;39868;53.398;6.564;2022-12-18T04:06:37;-1.80;79.80
53962;DHT22;39868;53.398;6.564;2022-12-18T04:09:07;-1.80;79.80
53962;DHT22;39868;53.398;6.564;2022-12-18T04:11:43;-1.80;79.80
53962;DHT22;39868;53.398;6.564;2022-12-18T04:14:14;-1.80;79.90
53962;DHT22;39868;53.398;6.564;2022-12-18T04:16:47;-1.80;79.90
53962;DHT22;39868;53.398;6.564;2022-12-18T04:19:18;-1.80;79.90
53962;DHT22;39868;53.398;6.564;2022-12-18T04:21:49;-1.80;79.90
53962;DHT22;39868;53.398;6.564;2022-12-18T04:24:17;-1.90;79.80
53962;DHT22;39868;53.398;6.564;2022-12-18T04:26:54;-1.90;79.90
53962;DHT22;39868;53.398;6.564;2022-12-18T04:29:25;-1.90;79.90
53962;DHT22;39868;53.398;6.564;2022-12-18T04:31:52;-1.90;79.90
53962;DHT22;39868;53.398;6.564;2022-12-18T04:34:21;-1.90;79.90
53962;DHT22;39868;53.398;6.564;2022-12-18T04:36:51;-1.90;79.90
53962;DHT22;39868;53.398;6.564;2022-12-18T04:39:21;-1.90;79.90
53962;DHT22;39868;53.398;6.564;2022-12-18T04:41:50;-1.90;79.90
53962;DHT22;39868;53.398;6.564;2022-12-18T04:44:18;-1.90;79.90
53962;DHT22;39868;53.398;6.564;2022-12-18T04:46:45;-1.80;80.00
53962;DHT22;39868;53.398;6.564;2022-12-18T04:49:13;-1.90;79.90
53962;DHT22;39868;53.398;6.564;2022-12-18T04:51:41;-1.90;80.50
53962;DHT22;39868;53.398;6.564;2022-12-18T04:54:09;-1.90;79.90
53962;DHT22;39868;53.398;6.564;2022-12-18T04:56:36;-1.90;79.90
53962;DHT22;39868;53.398;6.564;2022-12-18T04:59:04;-1.80;80.00
53962;DHT22;39868;53.398;6.564;2022-12-18T05:01:32;-1.80;80.00
53962;DHT22;39868;53.398;6.564;2022-12-18T05:04:01;-1.90;79.90
53962;DHT22;39868;53.398;6.564;2022-12-18T05:06:29;-1.90;79.80
53962;DHT22;39868;53.398;6.564;2022-12-18T05:08:57;-1.90;79.80
53962;DHT22;39868;53.398;6.564;2022-12-18T05:11:24;-1.90;79.80
53962;DHT22;39868;53.398;6.564;2022-12-18T05:13:52;-1.90;79.80
53962;DHT22;39868;53.398;6.564;2022-12-18T05:16:19;-2.00;79.70
53962;DHT22;39868;53.398;6.564;2022-12-18T05:18:47;-2.00;79.70
53962;DHT22;39868;53.398;6.564;2022-12-18T05:21:15;-2.00;79.70
53962;DHT22;39868;53.398;6.564;2022-12-18T05:23:42;-2.00;79.70
53962;DHT22;39868;53.398;6.564;2022-12-18T05:26:15;-2.00;79.70
53962;DHT22;39868;53.398;6.564;2022-12-18T05:28:45;-2.00;79.80
53962;DHT22;39868;53.398;6.564;2022-12-18T05:31:13;-2.00;79.70
53962;DHT22;39868;53.398;6.564;2022-12-18T05:34:13;-2.00;79.80
53962;DHT22;39868;53.398;6.564;2022-12-18T05:36:41;-2.00;79.80
53962;DHT22;39868;53.398;6.564;2022-12-18T05:39:10;-2.00;79.80
53962;DHT22;39868;53.398;6.564;2022-12-18T05:41:38;-2.10;79.70
53962;DHT22;39868;53.398;6.564;2022-12-18T05:44:05;-2.10;79.70
53962;DHT22;39868;53.398;6.564;2022-12-18T05:46:33;-2.10;79.70
53962;DHT22;39868;53.398;6.564;2022-12-18T05:49:00;-2.10;79.70
53962;DHT22;39868;53.398;6.564;2022-12-18T05:51:30;-2.10;79.70
53962;DHT22;39868;53.398;6.564;2022-12-18T05:53:58;-2.10;79.70
53962;DHT22;39868;53.398;6.564;2022-12-18T05:56:26;-2.10;79.70
53962;DHT22;39868;53.398;6.564;2022-12-18T05:58:53;-2.10;79.70
53962;DHT22;39868;53.398;6.564;2022-12-18T06:01:24;-2.20;79.60
53962;DHT22;39868;53.398;6.564;2022-12-18T06:03:52;-2.20;79.60
53962;DHT22;39868;53.398;6.564;2022-12-18T06:06:23;-2.20;79.60
53962;DHT22;39868;53.398;6.564;2022-12-18T06:08:51;-2.20;79.60
53962;DHT22;39868;53.398;6.564;2022-12-18T06:11:21;-2.30;79.50
53962;DHT22;39868;53.398;6.564;2022-12-18T06:13:53;-2.30;79.50
53962;DHT22;39868;53.398;6.564;2022-12-18T06:16:29;-2.30;79.50
53962;DHT22;39868;53.398;6.564;2022-12-18T06:18:58;-2.30;79.50
53962;DHT22;39868;53.398;6.564;2022-12-18T06:21:27;-2.30;79.50
53962;DHT22;39868;53.398;6.564;2022-12-18T06:23:55;-2.40;79.40
53962;DHT22;39868;53.398;6.564;2022-12-18T06:26:24;-2.40;79.40
53962;DHT22;39868;53.398;6.564;2022-12-18T06:28:54;-2.40;79.40
53962;DHT22;39868;53.398;6.564;2022-12-18T06:31:22;-2.40;79.50
53962;DHT22;39868;53.398;6.564;2022-12-18T06:33:50;-2.40;79.50
53962;DHT22;39868;53.398;6.564;2022-12-18T06:36:17;-2.40;79.50
53962;DHT22;39868;53.398;6.564;2022-12-18T06:38:45;-2.40;79.50
53962;DHT22;39868;53.398;6.564;2022-12-18T06:41:18;-2.50;79.40
53962;DHT22;39868;53.398;6.564;2022-12-18T06:43:46;-2.50;79.40
53962;DHT22;39868;53.398;6.564;2022-12-18T06:46:14;-2.50;79.40
53962;DHT22;39868;53.398;6.564;2022-12-18T06:48:42;-2.50;79.40
53962;DHT22;39868;53.398;6.564;2022-12-18T06:51:10;-2.60;79.30
53962;DHT22;39868;53.398;6.564;2022-12-18T06:53:37;-2.60;79.40
53962;DHT22;39868;53.398;6.564;2022-12-18T06:56:07;-2.60;79.40
53962;DHT22;39868;53.398;6.564;2022-12-18T06:58:37;-2.60;79.40
53962;DHT22;39868;53.398;6.564;2022-12-18T07:01:08;-2.60;79.40
53962;DHT22;39868;53.398;6.564;2022-12-18T07:03:37;-2.60;79.40
53962;DHT22;39868;53.398;6.564;2022-12-18T07:06:05;-2.70;79.30
53962;DHT22;39868;53.398;6.564;2022-12-18T07:08:33;-2.70;79.40
53962;DHT22;39868;53.398;6.564;2022-12-18T07:11:03;-2.70;79.40
53962;DHT22;39868;53.398;6.564;2022-12-18T07:13:31;-2.70;79.40
53962;DHT22;39868;53.398;6.564;2022-12-18T07:16:11;-2.70;79.40
53962;DHT22;39868;53.398;6.564;2022-12-18T07:18:48;-2.70;79.40
53962;DHT22;39868;53.398;6.564;2022-12-18T07:21:18;-2.70;79.40
53962;DHT22;39868;53.398;6.564;2022-12-18T07:23:46;-2.70;79.50
53962;DHT22;39868;53.398;6.564;2022-12-18T07:26:18;-2.70;79.50
53962;DHT22;39868;53.398;6.564;2022-12-18T07:28:46;-2.70;79.50
53962;DHT22;39868;53.398;6.564;2022-12-18T07:31:17;-2.70;79.50
53962;DHT22;39868;53.398;6.564;2022-12-18T07:33:47;-2.70;79.50
53962;DHT22;39868;53.398;6.564;2022-12-18T07:36:16;-2.70;79.50
53962;DHT22;39868;53.398;6.564;2022-12-18T07:38:47;-2.60;79.60
53962;DHT22;39868;53.398;6.564;2022-12-18T07:41:15;-2.70;79.50
53962;DHT22;39868;53.398;6.564;2022-12-18T07:43:43;-2.70;79.50
53962;DHT22;39868;53.398;6.564;2022-12-18T07:46:12;-2.60;79.60
53962;DHT22;39868;53.398;6.564;2022-12-18T07:48:46;-2.70;79.50
53962;DHT22;39868;53.398;6.564;2022-12-18T07:51:16;-2.60;79.60
53962;DHT22;39868;53.398;6.564;2022-12-18T07:53:44;-2.60;79.60
53962;DHT22;39868;53.398;6.564;2022-12-18T07:56:15;-2.60;79.60
53962;DHT22;39868;53.398;6.564;2022-12-18T07:58:58;-2.60;79.60
53962;DHT22;39868;53.398;6.564;2022-12-18T08:01:26;-2.60;79.60
53962;DHT22;39868;53.398;6.564;2022-12-18T08:03:54;-2.60;79.60
53962;DHT22;39868;53.398;6.564;2022-12-18T08:06:22;-2.50;79.70
53962;DHT22;39868;53.398;6.564;2022-12-18T08:08:52;-2.50;79.70
53962;DHT22;39868;53.398;6.564;2022-12-18T08:11:21;-2.50;79.70
53962;DHT22;39868;53.398;6.564;2022-12-18T08:13:49;-2.50;80.20
53962;DHT22;39868;53.398;6.564;2022-12-18T08:16:17;-2.40;79.70
53962;DHT22;39868;53.398;6.564;2022-12-18T08:18:46;-2.40;79.70
53962;DHT22;39868;53.398;6.564;2022-12-18T08:21:23;-2.40;79.70
53962;DHT22;39868;53.398;6.564;2022-12-18T08:23:52;-2.40;79.70
53962;DHT22;39868;53.398;6.564;2022-12-18T08:26:20;-2.40;79.60
53962;DHT22;39868;53.398;6.564;2022-12-18T08:28:49;-2.30;79.70
53962;DHT22;39868;53.398;6.564;2022-12-18T08:31:18;-2.30;79.70
53962;DHT22;39868;53.398;6.564;2022-12-18T08:33:49;-2.30;79.70
53962;DHT22;39868;53.398;6.564;2022-12-18T08:36:17;-2.30;79.60
53962;DHT22;39868;53.398;6.564;2022-12-18T08:38:45;-2.30;79.60
53962;DHT22;39868;53.398;6.564;2022-12-18T08:41:15;-2.30;79.60
53962;DHT22;39868;53.398;6.564;2022-12-18T08:43:43;-2.20;79.70
53962;DHT22;39868;53.398;6.564;2022-12-18T08:46:34;-2.20;79.70
53962;DHT22;39868;53.398;6.564;2022-12-18T08:49:03;-2.20;79.70
53962;DHT22;39868;53.398;6.564;2022-12-18T08:51:31;-2.20;79.70
53962;DHT22;39868;53.398;6.564;2022-12-18T08:53:59;-2.10;79.70
53962;DHT22;39868;53.398;6.564;2022-12-18T08:56:26;-2.10;79.70
53962;DHT22;39868;53.398;6.564;2022-12-18T08:58:54;-2.10;79.70
53962;DHT22;39868;53.398;6.564;2022-12-18T09:01:22;-2.10;79.70
53962;DHT22;39868;53.398;6.564;2022-12-18T09:03:50;-2.00;79.70
53962;DHT22;39868;53.398;6.564;2022-12-18T09:06:19;-2.00;79.70
53962;DHT22;39868;53.398;6.564;2022-12-18T09:08:47;-2.00;79.70
53962;DHT22;39868;53.398;6.564;2022-12-18T09:11:23;-1.90;79.70
53962;DHT22;39868;53.398;6.564;2022-12-18T09:13:52;-1.90;79.70
53962;DHT22;39868;53.398;6.564;2022-12-18T09:16:21;-1.80;79.80
53962;DHT22;39868;53.398;6.564;2022-12-18T09:18:58;-1.80;79.70
53962;DHT22;39868;53.398;6.564;2022-12-18T09:21:31;-1.70;80.40
53962;DHT22;39868;53.398;6.564;2022-12-18T09:24:04;-1.70;79.80
53962;DHT22;39868;53.398;6.564;2022-12-18T09:26:35;-1.60;79.80
53962;DHT22;39868;53.398;6.564;2022-12-18T09:29:04;-1.60;79.80
53962;DHT22;39868;53.398;6.564;2022-12-18T09:31:35;-1.50;79.80
53962;DHT22;39868;53.398;6.564;2022-12-18T09:34:06;-1.50;79.80
53962;DHT22;39868;53.398;6.564;2022-12-18T09:36:34;-1.40;79.80
53962;DHT22;39868;53.398;6.564;2022-12-18T09:39:02;-1.40;79.80
53962;DHT22;39868;53.398;6.564;2022-12-18T09:44:14;-1.20;79.90
53962;DHT22;39868;53.398;6.564;2022-12-18T09:47:05;-1.20;79.90
53962;DHT22;39868;53.398;6.564;2022-12-18T09:49:40;-1.10;79.90
53962;DHT22;39868;53.398;6.564;2022-12-18T09:52:35;-1.10;79.80
53962;DHT22;39868;53.398;6.564;2022-12-18T09:55:13;-1.00;79.80
53962;DHT22;39868;53.398;6.564;2022-12-18T09:57:46;-1.00;79.80
53962;DHT22;39868;53.398;6.564;2022-12-18T10:00:21;-0.90;79.80
53962;DHT22;39868;53.398;6.564;2022-12-18T10:02:51;-0.90;79.70
53962;DHT22;39868;53.398;6.564;2022-12-18T10:05:32;-0.80;79.80
53962;DHT22;39868;53.398;6.564;2022-12-18T10:13:48;-0.70;79.70
53962;DHT22;39868;53.398;6.564;2022-12-18T10:16:31;-0.60;79.80
53962;DHT22;39868;53.398;6.564;2022-12-18T10:19:17;-0.50;79.80
53962;DHT22;39868;53.398;6.564;2022-12-18T10:21:57;-0.40;79.90
53962;DHT22;39868;53.398;6.564;2022-12-18T10:27:23;-0.20;80.00
53962;DHT22;39868;53.398;6.564;2022-12-18T10:29:51;-0.10;80.00
53962;DHT22;39868;53.398;6.564;2022-12-18T10:32:25;0.00;80.00
53962;DHT22;39868;53.398;6.564;2022-12-18T10:34:56;0.10;80.00
53962;DHT22;39868;53.398;6.564;2022-12-18T10:37:29;0.10;80.00
53962;DHT22;39868;53.398;6.564;2022-12-18T10:40:15;0.20;80.00
53962;DHT22;39868;53.398;6.564;2022-12-18T10:43:45;0.30;79.90
53962;DHT22;39868;53.398;6.564;2022-12-18T10:51:07;0.50;79.70
53962;DHT22;39868;53.398;6.564;2022-12-18T10:53:41;0.50;79.60
53962;DHT22;39868;53.398;6.564;2022-12-18T10:56:10;0.50;79.60
53962;DHT22;39868;53.398;6.564;2022-12-18T10:58:39;0.60;79.60
53962;DHT22;39868;53.398;6.564;2022-12-18T11:01:14;0.60;79.50
53962;DHT22;39868;53.398;6.564;2022-12-18T11:06:18;0.70;79.40
53962;DHT22;39868;53.398;6.564;2022-12-18T11:09:21;0.70;79.40
53962;DHT22;39868;53.398;6.564;2022-12-18T11:11:56;0.80;79.30
53962;DHT22;39868;53.398;6.564;2022-12-18T11:14:43;0.80;79.30
53962;DHT22;39868;53.398;6.564;2022-12-18T11:20:04;0.90;79.40
53962;DHT22;39868;53.398;6.564;2022-12-18T11:22:34;0.90;79.40
53962;DHT22;39868;53.398;6.564;2022-12-18T11:25:05;1.00;79.40
53962;DHT22;39868;53.398;6.564;2022-12-18T11:28:01;1.00;79.30
53962;DHT22;39868;53.398;6.564;2022-12-18T11:30:34;1.10;79.40
53962;DHT22;39868;53.398;6.564;2022-12-18T11:33:21;1.10;79.40
53962;DHT22;39868;53.398;6.564;2022-12-18T11:36:01;1.20;79.30
53962;DHT22;39868;53.398;6.564;2022-12-18T11:38:33;1.20;79.30
53962;DHT22;39868;53.398;6.564;2022-12-18T11:43:49;1.30;79.30
53962;DHT22;39868;53.398;6.564;2022-12-18T11:49:35;1.40;79.30
53962;DHT22;39868;53.398;6.564;2022-12-18T11:52:26;1.40;79.20
53962;DHT22;39868;53.398;6.564;2022-12-18T11:54:58;1.40;79.10
53962;DHT22;39868;53.398;6.564;2022-12-18T12:00:26;1.50;79.10
53962;DHT22;39868;53.398;6.564;2022-12-18T12:08:45;1.50;78.90
53962;DHT22;39868;53.398;6.564;2022-12-18T12:14:18;1.60;78.90
53962;DHT22;39868;53.398;6.564;2022-12-18T12:16:53;1.60;78.80
53962;DHT22;39868;53.398;6.564;2022-12-18T12:27:58;1.70;78.80
53962;DHT22;39868;53.398;6.564;2022-12-18T12:38:54;1.80;78.80
53962;DHT22;39868;53.398;6.564;2022-12-18T12:41:27;1.80;78.70
53962;DHT22;39868;53.398;6.564;2022-12-18T12:44:24;1.80;78.70
53962;DHT22;39868;53.398;6.564;2022-12-18T12:46:56;1.80;78.70
53962;DHT22;39868;53.398;6.564;2022-12-18T12:49:27;1.80;78.60
53962;DHT22;39868;53.398;6.564;2022-12-18T12:52:04;1.80;78.60
53962;DHT22;39868;53.398;6.564;2022-12-18T12:54:34;1.90;78.60
53962;DHT22;39868;53.398;6.564;2022-12-18T12:57:16;1.90;78.50
53962;DHT22;39868;53.398;6.564;2022-12-18T13:00:10;1.80;78.40
53962;DHT22;39868;53.398;6.564;2022-12-18T13:05:54;1.90;78.30
53962;DHT22;39868;53.398;6.564;2022-12-18T13:08:25;1.90;78.30
53962;DHT22;39868;53.398;6.564;2022-12-18T13:10:57;1.90;78.30
53962;DHT22;39868;53.398;6.564;2022-12-18T13:13:54;1.90;78.30
53962;DHT22;39868;53.398;6.564;2022-12-18T13:16:25;1.90;78.20
53962;DHT22;39868;53.398;6.564;2022-12-18T13:18:56;1.90;78.30
53962;DHT22;39868;53.398;6.564;2022-12-18T13:21:33;1.90;78.20
53962;DHT22;39868;53.398;6.564;2022-12-18T13:24:27;1.90;78.20
53962;DHT22;39868;53.398;6.564;2022-12-18T13:26:57;2.00;78.30
53962;DHT22;39868;53.398;6.564;2022-12-18T13:29:54;1.90;78.20
53962;DHT22;39868;53.398;6.564;2022-12-18T13:32:24;2.00;78.30
53962;DHT22;39868;53.398;6.564;2022-12-18T13:37:52;2.00;78.20
53962;DHT22;39868;53.398;6.564;2022-12-18T13:46:25;2.10;78.20
53962;DHT22;39868;53.398;6.564;2022-12-18T13:49:15;2.10;78.10
53962;DHT22;39868;53.398;6.564;2022-12-18T13:51:47;2.10;78.00
53962;DHT22;39868;53.398;6.564;2022-12-18T13:56:57;2.10;77.90
53962;DHT22;39868;53.398;6.564;2022-12-18T13:59:32;2.10;77.80
53962;DHT22;39868;53.398;6.564;2022-12-18T14:02:07;2.10;77.80
53962;DHT22;39868;53.398;6.564;2022-12-18T14:04:38;2.00;77.60
53962;DHT22;39868;53.398;6.564;2022-12-18T14:07:10;2.10;77.70
53962;DHT22;39868;53.398;6.564;2022-12-18T14:09:43;2.10;77.60
53962;DHT22;39868;53.398;6.564;2022-12-18T14:12:40;2.00;77.60
53962;DHT22;39868;53.398;6.564;2022-12-18T14:20:41;2.00;77.60
53962;DHT22;39868;53.398;6.564;2022-12-18T14:26:03;1.90;77.50
53962;DHT22;39868;53.398;6.564;2022-12-18T14:28:45;1.90;77.60
53962;DHT22;39868;53.398;6.564;2022-12-18T14:31:24;1.90;77.60
53962;DHT22;39868;53.398;6.564;2022-12-18T14:33:52;1.90;77.50
53962;DHT22;39868;53.398;6.564;2022-12-18T14:36:21;1.90;77.50
53962;DHT22;39868;53.398;6.564;2022-12-18T14:38:53;1.90;77.70
53962;DHT22;39868;53.398;6.564;2022-12-18T14:41:21;1.90;77.70
53962;DHT22;39868;53.398;6.564;2022-12-18T14:43:52;1.80;77.70
53962;DHT22;39868;53.398;6.564;2022-12-18T14:49:51;1.80;77.70
53962;DHT22;39868;53.398;6.564;2022-12-18T14:51:54;1.70;77.70
53962;DHT22;39868;53.398;6.564;2022-12-18T14:54:22;1.70;77.80
53962;DHT22;39868;53.398;6.564;2022-12-18T14:56:59;1.60;77.80
53962;DHT22;39868;53.398;6.564;2022-12-18T14:59:27;1.60;77.80
53962;DHT22;39868;53.398;6.564;2022-12-18T15:04:35;1.50;77.80
53962;DHT22;39868;53.398;6.564;2022-12-18T15:07:22;1.50;77.90
53962;DHT22;39868;53.398;6.564;2022-12-18T15:12:37;1.40;77.90
53962;DHT22;39868;53.398;6.564;2022-12-18T15:15:43;1.40;77.90
53962;DHT22;39868;53.398;6.564;2022-12-18T15:17:56;1.30;77.90
53962;DHT22;39868;53.398;6.564;2022-12-18T15:20:24;1.30;77.90
53962;DHT22;39868;53.398;6.564;2022-12-18T15:22:54;1.30;77.90
53962;DHT22;39868;53.398;6.564;2022-12-18T15:27:58;1.20;77.80
53962;DHT22;39868;53.398;6.564;2022-12-18T15:30:25;1.20;77.80
53962;DHT22;39868;53.398;6.564;2022-12-18T15:33:16;1.20;77.80
53962;DHT22;39868;53.398;6.564;2022-12-18T15:35:40;1.10;77.80
53962;DHT22;39868;53.398;6.564;2022-12-18T15:38:12;1.10;77.80
53962;DHT22;39868;53.398;6.564;2022-12-18T15:40:40;1.10;77.90
53962;DHT22;39868;53.398;6.564;2022-12-18T15:43:08;1.10;77.90
53962;DHT22;39868;53.398;6.564;2022-12-18T15:45:54;1.10;77.90
53962;DHT22;39868;53.398;6.564;2022-12-18T15:48:22;1.00;77.80
53962;DHT22;39868;53.398;6.564;2022-12-18T15:50:50;1.00;77.90
53962;DHT22;39868;53.398;6.564;2022-12-18T15:53:18;1.00;77.90
53962;DHT22;39868;53.398;6.564;2022-12-18T15:55:45;1.00;77.90
53962;DHT22;39868;53.398;6.564;2022-12-18T15:58:32;1.00;77.50
53962;DHT22;39868;53.398;6.564;2022-12-18T16:01:01;1.00;77.70
53962;DHT22;39868;53.398;6.564;2022-12-18T16:03:29;1.00;77.70
53962;DHT22;39868;53.398;6.564;2022-12-18T16:05:58;1.00;77.70
53962;DHT22;39868;53.398;6.564;2022-12-18T16:08:29;1.00;77.70
53962;DHT22;39868;53.398;6.564;2022-12-18T16:10:57;1.00;77.70
53962;DHT22;39868;53.398;6.564;2022-12-18T16:13:25;1.00;77.70
53962;DHT22;39868;53.398;6.564;2022-12-18T16:15:53;1.00;77.70
53962;DHT22;39868;53.398;6.564;2022-12-18T16:18:20;1.00;77.60
53962;DHT22;39868;53.398;6.564;2022-12-18T16:20:49;1.00;77.60
53962;DHT22;39868;53.398;6.564;2022-12-18T16:23:17;1.00;77.70
53962;DHT22;39868;53.398;6.564;2022-12-18T16:25:44;1.00;77.70
53962;DHT22;39868;53.398;6.564;2022-12-18T16:28:12;1.00;77.60
53962;DHT22;39868;53.398;6.564;2022-12-18T16:30:39;1.00;77.70
53962;DHT22;39868;53.398;6.564;2022-12-18T16:33:09;1.00;77.60
53962;DHT22;39868;53.398;6.564;2022-12-18T16:35:37;1.00;77.60
53962;DHT22;39868;53.398;6.564;2022-12-18T16:38:05;1.00;77.70
53962;DHT22;39868;53.398;6.564;2022-12-18T16:40:32;1.00;77.70
53962;DHT22;39868;53.398;6.564;2022-12-18T16:43:00;1.10;77.80
53962;DHT22;39868;53.398;6.564;2022-12-18T16:45:28;1.10;77.80
53962;DHT22;39868;53.398;6.564;2022-12-18T16:48:00;1.10;77.80
53962;DHT22;39868;53.398;6.564;2022-12-18T16:50:27;1.10;77.90
53962;DHT22;39868;53.398;6.564;2022-12-18T16:52:55;1.10;77.80
53962;DHT22;39868;53.398;6.564;2022-12-18T16:55:23;1.10;77.80
53962;DHT22;39868;53.398;6.564;2022-12-18T16:57:50;1.10;77.70
53962;DHT22;39868;53.398;6.564;2022-12-18T17:00:18;1.10;77.70
53962;DHT22;39868;53.398;6.564;2022-12-18T17:02:46;1.10;77.80
53962;DHT22;39868;53.398;6.564;2022-12-18T17:05:14;1.20;77.70
53962;DHT22;39868;53.398;6.564;2022-12-18T17:07:42;1.20;77.70
53962;DHT22;39868;53.398;6.564;2022-12-18T17:10:09;1.20;77.80
53962;DHT22;39868;53.398;6.564;2022-12-18T17:12:37;1.20;77.70
53962;DHT22;39868;53.398;6.564;2022-12-18T17:15:05;1.20;77.70
53962;DHT22;39868;53.398;6.564;2022-12-18T17:17:33;1.20;77.70
53962;DHT22;39868;53.398;6.564;2022-12-18T17:20:03;1.20;77.70
53962;DHT22;39868;53.398;6.564;2022-12-18T17:22:31;1.20;77.70
53962;DHT22;39868;53.398;6.564;2022-12-18T17:24:58;1.20;77.70
53962;DHT22;39868;53.398;6.564;2022-12-18T17:27:26;1.30;77.70
53962;DHT22;39868;53.398;6.564;2022-12-18T17:29:54;1.30;77.60
53962;DHT22;39868;53.398;6.564;2022-12-18T17:32:21;1.30;77.70
53962;DHT22;39868;53.398;6.564;2022-12-18T17:34:49;1.30;77.60
53962;DHT22;39868;53.398;6.564;2022-12-18T17:37:16;1.30;77.60
53962;DHT22;39868;53.398;6.564;2022-12-18T17:39:44;1.30;77.60
53962;DHT22;39868;53.398;6.564;2022-12-18T17:42:12;1.30;77.50
53962;DHT22;39868;53.398;6.564;2022-12-18T17:44:42;1.30;77.50
53962;DHT22;39868;53.398;6.564;2022-12-18T17:47:10;1.30;77.50
53962;DHT22;39868;53.398;6.564;2022-12-18T17:49:39;1.30;77.50
53962;DHT22;39868;53.398;6.564;2022-12-18T17:52:06;1.40;77.60
53962;DHT22;39868;53.398;6.564;2022-12-18T17:54:35;1.40;77.50
53962;DHT22;39868;53.398;6.564;2022-12-18T17:57:06;1.40;77.50
53962;DHT22;39868;53.398;6.564;2022-12-18T17:59:33;1.40;77.60
53962;DHT22;39868;53.398;6.564;2022-12-18T18:02:01;1.40;77.50
53962;DHT22;39868;53.398;6.564;2022-12-18T18:04:29;1.40;77.50
53962;DHT22;39868;53.398;6.564;2022-12-18T18:06:56;1.40;77.40